sensor_id;sensor_type;location;lat;lon;timestamp;pressure;altitude;pressure_sealevel;temperature;humidity
31088;BME280;17745;55.914;37.554;2023-03-25T00:00:28;97927.84;;;8.81;59.64
31088;BME280;17745;55.914;37.554;2023-03-25T00:02:58;97933.13;;;8.81;59.63
31088;BME280;17745;55.914;37.554;2023-03-25T00:05:26;97921.50;;;8.82;59.65
31088;BME280;17745;55.914;37.554;2023-03-25T00:07:54;97919.41;;;8.79;59.69
31088;BME280;17745;55.914;37.554;2023-03-25T00:10:27;97923.13;;;8.78;59.64
31088;BME280;17745;55.914;37.554;2023-03-25T00:12:56;97924.72;;;8.74;59.72
31088;BME280;17745;55.914;37.554;2023-03-25T00:15:30;97914.97;;;8.69;59.75
31088;BME280;17745;55.914;37.554;2023-03-25T00:17:59;97916.31;;;8.67;59.79
31088;BME280;17745;55.914;37.554;2023-03-25T00:20:27;97912.13;;;8.61;59.94
31088;BME280;17745;55.914;37.554;2023-03-25T00:23:00;97906.84;;;8.61;59.83
31088;BME280;17745;55.914;37.554;2023-03-25T00:25:32;97897.63;;;8.58;59.81
31088;BME280;17745;55.914;37.554;2023-03-25T00:28:01;97893.12;;;8.58;59.81
31088;BME280;17745;55.914;37.554;2023-03-25T00:30:29;97888.13;;;8.57;59.76
31088;BME280;17745;55.914;37.554;2023-03-25T00:32:57;97878.41;;;8.52;59.72
31088;BME280;17745;55.914;37.554;2023-03-25T00:35:27;97891.03;;;8.55;59.86
31088;BME280;17745;55.914;37.554;2023-03-25T00:37:55;97884.19;;;8.54;59.92
31088;BME280;17745;55.914;37.554;2023-03-25T00:40:26;97883.13;;;8.55;59.81
31088;BME280;17745;55.914;37.554;2023-03-25T00:43:05;97872.06;;;8.53;59.75
31088;BME280;17745;55.914;37.554;2023-03-25T00:45:33;97859.94;;;8.47;59.79
31088;BME280;17745;55.914;37.554;2023-03-25T00:48:04;97871.81;;;8.50;59.79
31088;BME280;17745;55.914;37.554;2023-03-25T00:50:32;97874.69;;;8.48;59.80
31088;BME280;17745;55.914;37.554;2023-03-25T00:53:00;97871.53;;;8.46;59.83
31088;BME280;17745;55.914;37.554;2023-03-25T00:55:29;97871.53;;;8.46;59.85
31088;BME280;17745;55.914;37.554;2023-03-25T00:57:59;97868.13;;;8.46;59.91
31088;BME280;17745;55.914;37.554;2023-03-25T01:00:29;97857.81;;;8.44;59.85
31088;BME280;17745;55.914;37.554;2023-03-25T01:02:58;97848.84;;;8.45;59.86
31088;BME280;17745;55.914;37.554;2023-03-25T01:05:30;97845.16;;;8.46;59.88
31088;BME280;17745;55.914;37.554;2023-03-25T01:08:00;97848.88;;;8.50;59.93
31088;BME280;17745;55.914;37.554;2023-03-25T01:10:30;97848.28;;;8.58;59.89
31088;BME280;17745;55.914;37.554;2023-03-25T01:12:58;97834.50;;;8.67;59.80
31088;BME280;17745;55.914;37.554;2023-03-25T01:15:31;97832.41;;;8.69;59.74
31088;BME280;17745;55.914;37.554;2023-03-25T01:18:01;97835.00;;;8.74;59.65
31088;BME280;17745;55.914;37.554;2023-03-25T01:20:32;97835.78;;;8.75;59.59
31088;BME280;17745;55.914;37.554;2023-03-25T01:23:01;97832.38;;;8.74;59.59
31088;BME280;17745;55.914;37.554;2023-03-25T01:25:30;97835.78;;;8.75;59.56
31088;BME280;17745;55.914;37.554;2023-03-25T01:27:58;97829.97;;;8.78;59.58
31088;BME280;17745;55.914;37.554;2023-03-25T01:30:26;97841.31;;;8.78;59.61
31088;BME280;17745;55.914;37.554;2023-03-25T01:32:56;97830.50;;;8.80;59.67
31088;BME280;17745;55.914;37.554;2023-03-25T01:35:26;97823.34;;;8.80;59.72
31088;BME280;17745;55.914;37.554;2023-03-25T01:37:54;97815.19;;;8.82;59.74
31088;BME280;17745;55.914;37.554;2023-03-25T01:40:22;97815.19;;;8.82;59.76
31088;BME280;17745;55.914;37.554;2023-03-25T01:42:55;97801.97;;;8.82;59.76
31088;BME280;17745;55.914;37.554;2023-03-25T01:45:27;97803.03;;;8.81;59.68
31088;BME280;17745;55.914;37.554;2023-03-25T01:48:02;97789.34;;;8.73;59.74
31088;BME280;17745;55.914;37.554;2023-03-25T01:50:33;97789.59;;;8.77;59.85
31088;BME280;17745;55.914;37.554;2023-03-25T01:53:04;97794.84;;;8.82;59.81
31088;BME280;17745;55.914;37.554;2023-03-25T01:55:34;97791.63;;;8.85;59.75
31088;BME280;17745;55.914;37.554;2023-03-25T01:58:06;97787.66;;;8.88;59.69
31088;BME280;17745;55.914;37.554;2023-03-25T02:00:37;97778.66;;;8.94;59.58
31088;BME280;17745;55.914;37.554;2023-03-25T02:03:15;97772.53;;;8.99;59.52
31088;BME280;17745;55.914;37.554;2023-03-25T02:06:00;97766.44;;;9.04;59.48
31088;BME280;17745;55.914;37.554;2023-03-25T02:08:40;97764.00;;;9.07;59.50
31088;BME280;17745;55.914;37.554;2023-03-25T02:11:30;97758.22;;;9.05;59.43
31088;BME280;17745;55.914;37.554;2023-03-25T02:14:07;97756.38;;;9.06;59.55
31088;BME280;17745;55.914;37.554;2023-03-25T02:17:24;97757.44;;;9.05;59.64
31088;BME280;17745;55.914;37.554;2023-03-25T02:20:35;97765.63;;;9.08;59.69
31088;BME280;17745;55.914;37.554;2023-03-25T02:23:41;97754.75;;;9.10;59.77
31088;BME280;17745;55.914;37.554;2023-03-25T02:26:52;97760.00;;;9.15;59.69
31088;BME280;17745;55.914;37.554;2023-03-25T02:29:54;97757.59;;;9.19;59.72
31088;BME280;17745;55.914;37.554;2023-03-25T02:35:55;97740.34;;;9.26;59.69
31088;BME280;17745;55.914;37.554;2023-03-25T02:38:35;97737.31;;;9.38;59.58
31088;BME280;17745;55.914;37.554;2023-03-25T02:41:12;97728.50;;;9.48;59.45
31088;BME280;17745;55.914;37.554;2023-03-25T02:43:45;97732.44;;;9.51;59.41
31088;BME280;17745;55.914;37.554;2023-03-25T02:46:17;97717.13;;;9.48;59.36
31088;BME280;17745;55.914;37.554;2023-03-25T02:48:50;97714.56;;;9.42;59.52
31088;BME280;17745;55.914;37.554;2023-03-25T02:51:26;97711.66;;;9.44;59.66
31088;BME280;17745;55.914;37.554;2023-03-25T02:54:01;97709.22;;;9.48;59.69
31088;BME280;17745;55.914;37.554;2023-03-25T02:56:30;97707.81;;;9.55;59.61
31088;BME280;17745;55.914;37.554;2023-03-25T02:59:00;97705.63;;;9.63;59.58
31088;BME280;17745;55.914;37.554;2023-03-25T03:01:33;97701.50;;;9.76;59.47
31088;BME280;17745;55.914;37.554;2023-03-25T03:04:05;97699.50;;;9.86;59.39
31088;BME280;17745;55.914;37.554;2023-03-25T03:06:39;97691.75;;;9.95;59.20
31088;BME280;17745;55.914;37.554;2023-03-25T03:09:36;97691.09;;;10.04;59.08
31088;BME280;17745;55.914;37.554;2023-03-25T03:12:18;97681.44;;;10.13;58.93
31088;BME280;17745;55.914;37.554;2023-03-25T03:15:08;97675.78;;;10.20;58.75
31088;BME280;17745;55.914;37.554;2023-03-25T03:17:45;97677.00;;;10.27;58.66
31088;BME280;17745;55.914;37.554;2023-03-25T03:20:46;97677.69;;;10.33;58.59
31088;BME280;17745;55.914;37.554;2023-03-25T03:23:56;97672.31;;;10.38;58.57
31088;BME280;17745;55.914;37.554;2023-03-25T03:26:39;97660.41;;;10.41;58.62
31088;BME280;17745;55.914;37.554;2023-03-25T03:29:15;97649.56;;;10.42;58.52
31088;BME280;17745;55.914;37.554;2023-03-25T03:31:51;97642.41;;;10.43;58.61
31088;BME280;17745;55.914;37.554;2023-03-25T03:34:46;97635.44;;;10.47;58.48
31088;BME280;17745;55.914;37.554;2023-03-25T03:37:27;97634.84;;;10.50;58.31
31088;BME280;17745;55.914;37.554;2023-03-25T03:40:05;97620.00;;;10.54;58.27
31088;BME280;17745;55.914;37.554;2023-03-25T03:43:09;97619.19;;;10.54;58.19
31088;BME280;17745;55.914;37.554;2023-03-25T03:45:47;97619.41;;;10.57;58.13
31088;BME280;17745;55.914;37.554;2023-03-25T03:48:31;97617.38;;;10.68;58.10
31088;BME280;17745;55.914;37.554;2023-03-25T03:51:08;97610.13;;;10.74;58.04
31088;BME280;17745;55.914;37.554;2023-03-25T03:53:50;97606.41;;;10.75;57.90
31088;BME280;17745;55.914;37.554;2023-03-25T03:56:31;97600.91;;;10.85;57.67
31088;BME280;17745;55.914;37.554;2023-03-25T03:59:14;97601.41;;;10.87;57.79
31088;BME280;17745;55.914;37.554;2023-03-25T04:01:50;97590.63;;;10.98;57.66
31088;BME280;17745;55.914;37.554;2023-03-25T04:04:39;97591.81;;;11.06;57.42
31088;BME280;17745;55.914;37.554;2023-03-25T04:08:20;97598.75;;;11.01;57.50
31088;BME280;17745;55.914;37.554;2023-03-25T04:11:05;97592.87;;;11.05;57.47
31088;BME280;17745;55.914;37.554;2023-03-25T04:13:54;97592.28;;;11.08;57.42
31088;BME280;17745;55.914;37.554;2023-03-25T04:17:08;97585.03;;;11.13;57.20
31088;BME280;17745;55.914;37.554;2023-03-25T04:19:44;97573.84;;;11.17;57.12
31088;BME280;17745;55.914;37.554;2023-03-25T04:22:19;97571.09;;;11.22;56.92
31088;BME280;17745;55.914;37.554;2023-03-25T04:24:58;97572.28;;;11.15;57.04
31088;BME280;17745;55.914;37.554;2023-03-25T04:27:33;97557.16;;;11.16;56.95
31088;BME280;17745;55.914;37.554;2023-03-25T04:30:11;97564.63;;;11.14;57.15
31088;BME280;17745;55.914;37.554;2023-03-25T04:32:48;97562.44;;;11.16;57.05
31088;BME280;17745;55.914;37.554;2023-03-25T04:35:20;97560.38;;;11.27;56.92
31088;BME280;17745;55.914;37.554;2023-03-25T04:37:51;97540.66;;;11.33;56.79
31088;BME280;17745;55.914;37.554;2023-03-25T04:40:28;97539.56;;;11.34;56.48
31088;BME280;17745;55.914;37.554;2023-03-25T04:43:11;97539.06;;;11.32;56.47
31088;BME280;17745;55.914;37.554;2023-03-25T04:45:47;97542.50;;;11.33;56.51
31088;BME280;17745;55.914;37.554;2023-03-25T04:48:29;97540.22;;;11.40;56.49
31088;BME280;17745;55.914;37.554;2023-03-25T04:51:15;97539.81;;;11.47;56.33
31088;BME280;17745;55.914;37.554;2023-03-25T04:53:52;97528.34;;;11.51;56.22
31088;BME280;17745;55.914;37.554;2023-03-25T04:56:35;97518.22;;;11.53;56.00
31088;BME280;17745;55.914;37.554;2023-03-25T04:59:15;97525.56;;;11.56;56.26
31088;BME280;17745;55.914;37.554;2023-03-25T05:02:05;97521.47;;;11.73;56.06
31088;BME280;17745;55.914;37.554;2023-03-25T05:07:51;97494.47;;;11.94;55.45
31088;BME280;17745;55.914;37.554;2023-03-25T05:10:36;97492.91;;;11.93;55.56
31088;BME280;17745;55.914;37.554;2023-03-25T05:13:31;97501.34;;;11.95;55.43
31088;BME280;17745;55.914;37.554;2023-03-25T05:16:45;97495.03;;;12.05;55.25
31088;BME280;17745;55.914;37.554;2023-03-25T05:19:38;97501.28;;;12.09;55.13
31088;BME280;17745;55.914;37.554;2023-03-25T05:22:09;97524.06;;;12.10;54.98
31088;BME280;17745;55.914;37.554;2023-03-25T05:32:12;97507.53;;;11.90;54.88
31088;BME280;17745;55.914;37.554;2023-03-25T05:34:47;97501.72;;;12.02;54.76
31088;BME280;17745;55.914;37.554;2023-03-25T05:37:19;97501.28;;;12.09;54.55
31088;BME280;17745;55.914;37.554;2023-03-25T05:39:51;97495.22;;;12.08;54.46
31088;BME280;17745;55.914;37.554;2023-03-25T05:42:24;97503.94;;;12.09;54.50
31088;BME280;17745;55.914;37.554;2023-03-25T05:44:56;97485.50;;;12.04;54.56
31088;BME280;17745;55.914;37.554;2023-03-25T05:47:29;97495.91;;;12.00;54.50
31088;BME280;17745;55.914;37.554;2023-03-25T05:50:02;97507.06;;;12.11;54.45
31088;BME280;17745;55.914;37.554;2023-03-25T05:52:31;97490.00;;;12.26;54.27
31088;BME280;17745;55.914;37.554;2023-03-25T05:55:12;97489.38;;;12.29;54.07
31088;BME280;17745;55.914;37.554;2023-03-25T05:58:04;97483.63;;;12.36;54.10
31088;BME280;17745;55.914;37.554;2023-03-25T06:00:52;97498.50;;;12.46;53.99
31088;BME280;17745;55.914;37.554;2023-03-25T06:03:30;97503.09;;;12.63;53.87
31088;BME280;17745;55.914;37.554;2023-03-25T06:06:07;97487.56;;;13.05;53.13
31088;BME280;17745;55.914;37.554;2023-03-25T06:08:46;97483.66;;;13.20;52.88
31088;BME280;17745;55.914;37.554;2023-03-25T06:11:18;97484.75;;;13.37;52.73
31088;BME280;17745;55.914;37.554;2023-03-25T06:13:53;97485.69;;;13.41;52.56
31088;BME280;17745;55.914;37.554;2023-03-25T06:16:40;97480.38;;;13.32;52.96
31088;BME280;17745;55.914;37.554;2023-03-25T06:19:18;97474.12;;;13.28;52.81
31088;BME280;17745;55.914;37.554;2023-03-25T06:21:54;97452.25;;;13.13;52.86
31088;BME280;17745;55.914;37.554;2023-03-25T06:24:24;97454.75;;;13.01;53.09
31088;BME280;17745;55.914;37.554;2023-03-25T06:27:00;97465.66;;;12.91;53.26
31088;BME280;17745;55.914;37.554;2023-03-25T06:29:33;97457.03;;;12.67;53.39
31088;BME280;17745;55.914;37.554;2023-03-25T06:32:07;97468.22;;;12.47;53.64
31088;BME280;17745;55.914;37.554;2023-03-25T06:34:39;97478.91;;;12.33;53.93
31088;BME280;17745;55.914;37.554;2023-03-25T06:37:09;97479.47;;;12.12;54.34
31088;BME280;17745;55.914;37.554;2023-03-25T06:39:39;97487.47;;;11.98;54.66
31088;BME280;17745;55.914;37.554;2023-03-25T06:42:16;97486.94;;;11.87;54.94
31088;BME280;17745;55.914;37.554;2023-03-25T06:44:46;97497.34;;;11.75;55.31
31088;BME280;17745;55.914;37.554;2023-03-25T06:47:19;97487.22;;;11.54;56.04
31088;BME280;17745;55.914;37.554;2023-03-25T06:50:00;97487.69;;;11.33;56.66
31088;BME280;17745;55.914;37.554;2023-03-25T06:52:30;97467.62;;;11.04;57.71
31088;BME280;17745;55.914;37.554;2023-03-25T06:55:05;97466.97;;;10.84;58.21
31088;BME280;17745;55.914;37.554;2023-03-25T06:57:39;97470.22;;;10.81;58.33
31088;BME280;17745;55.914;37.554;2023-03-25T07:00:12;97473.75;;;10.77;58.44
31088;BME280;17745;55.914;37.554;2023-03-25T07:02:40;97463.56;;;10.70;59.13
31088;BME280;17745;55.914;37.554;2023-03-25T07:05:17;97473.16;;;10.66;59.32
31088;BME280;17745;55.914;37.554;2023-03-25T07:07:54;97472.88;;;10.67;59.60
31088;BME280;17745;55.914;37.554;2023-03-25T07:10:24;97468.84;;;10.70;59.74
31088;BME280;17745;55.914;37.554;2023-03-25T07:12:52;97470.25;;;10.67;59.94
31088;BME280;17745;55.914;37.554;2023-03-25T07:15:32;97468.19;;;10.64;60.22
31088;BME280;17745;55.914;37.554;2023-03-25T07:18:10;97468.94;;;10.65;60.26
31088;BME280;17745;55.914;37.554;2023-03-25T07:20:47;97476.41;;;10.63;60.43
31088;BME280;17745;55.914;37.554;2023-03-25T07:23:21;97467.38;;;10.64;60.67
31088;BME280;17745;55.914;37.554;2023-03-25T07:25:50;97458.19;;;10.61;60.97
31088;BME280;17745;55.914;37.554;2023-03-25T07:28:48;97451.12;;;10.56;61.07
31088;BME280;17745;55.914;37.554;2023-03-25T07:31:58;97453.47;;;10.58;61.38
31088;BME280;17745;55.914;37.554;2023-03-25T07:34:29;97459.25;;;10.60;61.33
31088;BME280;17745;55.914;37.554;2023-03-25T07:37:01;97434.66;;;10.60;61.46
31088;BME280;17745;55.914;37.554;2023-03-25T07:39:33;97461.03;;;10.51;61.99
31088;BME280;17745;55.914;37.554;2023-03-25T07:42:03;97457.50;;;10.55;61.85
31088;BME280;17745;55.914;37.554;2023-03-25T07:44:43;97459.84;;;10.57;62.03
31088;BME280;17745;55.914;37.554;2023-03-25T07:47:24;97478.19;;;10.53;62.44
31088;BME280;17745;55.914;37.554;2023-03-25T07:50:19;97454.38;;;10.53;62.45
31088;BME280;17745;55.914;37.554;2023-03-25T08:08:26;97481.59;;;10.68;62.58
31088;BME280;17745;55.914;37.554;2023-03-25T08:11:41;97491.41;;;10.67;62.93
31088;BME280;17745;55.914;37.554;2023-03-25T08:14:46;97500.72;;;10.65;63.08
31088;BME280;17745;55.914;37.554;2023-03-25T08:17:31;97498.97;;;10.74;63.03
31088;BME280;17745;55.914;37.554;2023-03-25T08:20:29;97499.81;;;10.83;62.70
31088;BME280;17745;55.914;37.554;2023-03-25T08:23:55;97488.53;;;10.92;62.81
31088;BME280;17745;55.914;37.554;2023-03-25T08:27:08;97490.19;;;10.87;63.19
31088;BME280;17745;55.914;37.554;2023-03-25T08:30:15;97502.84;;;10.91;63.12
31088;BME280;17745;55.914;37.554;2023-03-25T08:33:28;97495.69;;;10.91;63.22
31088;BME280;17745;55.914;37.554;2023-03-25T08:36:20;97495.69;;;10.91;63.34
31088;BME280;17745;55.914;37.554;2023-03-25T08:50:18;97486.34;;;11.08;63.44
31088;BME280;17745;55.914;37.554;2023-03-25T08:52:56;97492.13;;;11.10;63.47
31088;BME280;17745;55.914;37.554;2023-03-25T08:55:34;97476.13;;;11.15;63.38
31088;BME280;17745;55.914;37.554;2023-03-25T08:58:24;97486.53;;;11.11;63.46
31088;BME280;17745;55.914;37.554;2023-03-25T09:01:09;97496.56;;;11.14;63.69
31088;BME280;17745;55.914;37.554;2023-03-25T09:03:52;97494.28;;;11.22;63.50
31088;BME280;17745;55.914;37.554;2023-03-25T09:07:00;97493.06;;;11.28;63.50
31088;BME280;17745;55.914;37.554;2023-03-25T09:13:15;97490.06;;;11.43;63.55
31088;BME280;17745;55.914;37.554;2023-03-25T09:17:16;97496.22;;;11.53;63.68
31088;BME280;17745;55.914;37.554;2023-03-25T09:19:33;97479.59;;;11.84;63.17
31088;BME280;17745;55.914;37.554;2023-03-25T09:41:29;97528.47;;;12.46;61.93
31088;BME280;17745;55.914;37.554;2023-03-25T09:48:02;97548.53;;;12.29;62.11
31088;BME280;17745;55.914;37.554;2023-03-25T09:50:55;97550.59;;;12.10;62.56
31088;BME280;17745;55.914;37.554;2023-03-25T09:54:24;97541.78;;;12.00;62.89
31088;BME280;17745;55.914;37.554;2023-03-25T10:00:48;97535.34;;;12.15;62.82
31088;BME280;17745;55.914;37.554;2023-03-25T10:03:30;97525.47;;;12.39;62.67
31088;BME280;17745;55.914;37.554;2023-03-25T10:06:13;97529.97;;;12.70;62.21
31088;BME280;17745;55.914;37.554;2023-03-25T10:09:08;97519.25;;;12.93;61.89
31088;BME280;17745;55.914;37.554;2023-03-25T10:11:48;97522.88;;;13.23;61.49
31088;BME280;17745;55.914;37.554;2023-03-25T10:14:30;97531.50;;;13.38;61.01
31088;BME280;17745;55.914;37.554;2023-03-25T10:17:14;97530.09;;;13.23;60.97
31088;BME280;17745;55.914;37.554;2023-03-25T10:19:57;97536.63;;;12.99;61.64
31088;BME280;17745;55.914;37.554;2023-03-25T10:22:36;97525.84;;;13.04;61.69
31088;BME280;17745;55.914;37.554;2023-03-25T10:25:41;97531.19;;;13.13;61.56
31088;BME280;17745;55.914;37.554;2023-03-25T10:28:18;97512.25;;;12.97;61.78
31088;BME280;17745;55.914;37.554;2023-03-25T10:30:50;97526.16;;;13.11;61.77
31088;BME280;17745;55.914;37.554;2023-03-25T10:37:09;97537.50;;;13.61;60.84
31088;BME280;17745;55.914;37.554;2023-03-25T10:40:43;97531.56;;;13.55;60.83
31088;BME280;17745;55.914;37.554;2023-03-25T10:43:40;97532.19;;;13.52;60.76
31088;BME280;17745;55.914;37.554;2023-03-25T10:46:47;97539.69;;;13.50;60.70
31088;BME280;17745;55.914;37.554;2023-03-25T10:49:31;97539.53;;;13.47;60.57
31088;BME280;17745;55.914;37.554;2023-03-25T10:52:45;97524.34;;;13.38;61.24
31088;BME280;17745;55.914;37.554;2023-03-25T10:55:30;97513.41;;;13.66;60.93
31088;BME280;17745;55.914;37.554;2023-03-25T10:58:43;97528.72;;;13.69;60.82
31088;BME280;17745;55.914;37.554;2023-03-25T11:01:46;97530.75;;;13.72;60.62
31088;BME280;17745;55.914;37.554;2023-03-25T11:04:35;97535.31;;;13.81;60.10
31088;BME280;17745;55.914;37.554;2023-03-25T11:07:24;97540.28;;;13.65;60.27
31088;BME280;17745;55.914;37.554;2023-03-25T11:10:38;97545.09;;;13.36;60.79
31088;BME280;17745;55.914;37.554;2023-03-25T11:13:35;97544.00;;;13.20;61.28
31088;BME280;17745;55.914;37.554;2023-03-25T11:16:53;97537.59;;;13.21;61.28
31088;BME280;17745;55.914;37.554;2023-03-25T11:20:19;97531.66;;;13.24;61.27
31088;BME280;17745;55.914;37.554;2023-03-25T11:23:12;97525.44;;;13.37;60.92
31088;BME280;17745;55.914;37.554;2023-03-25T11:25:52;97520.41;;;13.36;60.91
31088;BME280;17745;55.914;37.554;2023-03-25T11:28:40;97539.03;;;13.36;60.93
31088;BME280;17745;55.914;37.554;2023-03-25T11:31:38;97535.44;;;13.40;60.87
31088;BME280;17745;55.914;37.554;2023-03-25T11:35:39;97538.72;;;13.37;60.71
31088;BME280;17745;55.914;37.554;2023-03-25T11:37:29;97528.72;;;13.43;60.84
31088;BME280;17745;55.914;37.554;2023-03-25T11:40:13;97526.69;;;13.49;60.80
31088;BME280;17745;55.914;37.554;2023-03-25T11:42:57;97549.69;;;13.53;60.67
31088;BME280;17745;55.914;37.554;2023-03-25T11:45:33;97543.72;;;13.39;61.11
31088;BME280;17745;55.914;37.554;2023-03-25T11:48:11;97534.22;;;13.47;61.14
31088;BME280;17745;55.914;37.554;2023-03-25T11:51:15;97548.91;;;13.53;60.83
31088;BME280;17745;55.914;37.554;2023-03-25T11:54:04;97540.16;;;13.43;60.92
31088;BME280;17745;55.914;37.554;2023-03-25T11:56:39;97541.84;;;13.30;61.14
31088;BME280;17745;55.914;37.554;2023-03-25T12:16:05;97564.19;;;13.38;61.16
31088;BME280;17745;55.914;37.554;2023-03-25T12:19:02;97564.19;;;13.38;61.16
31088;BME280;17745;55.914;37.554;2023-03-25T12:21:51;97572.84;;;12.86;61.82
31088;BME280;17745;55.914;37.554;2023-03-25T12:24:34;97560.81;;;12.89;61.94
31088;BME280;17745;55.914;37.554;2023-03-25T12:27:17;97560.53;;;12.99;61.80
31088;BME280;17745;55.914;37.554;2023-03-25T12:30:00;97549.59;;;13.09;61.61
31088;BME280;17745;55.914;37.554;2023-03-25T12:32:46;97556.50;;;13.19;61.46
31088;BME280;17745;55.914;37.554;2023-03-25T12:35:32;97547.44;;;13.29;61.44
31088;BME280;17745;55.914;37.554;2023-03-25T12:38:22;97559.19;;;13.37;61.36
31088;BME280;17745;55.914;37.554;2023-03-25T12:41:15;97548.13;;;13.43;61.09
31088;BME280;17745;55.914;37.554;2023-03-25T12:44:01;97558.12;;;13.47;60.94
31088;BME280;17745;55.914;37.554;2023-03-25T12:47:21;97553.06;;;13.36;60.96
31088;BME280;17745;55.914;37.554;2023-03-25T12:50:36;97546.03;;;13.23;61.24
31088;BME280;17745;55.914;37.554;2023-03-25T12:53:40;97544.97;;;13.33;61.16
31088;BME280;17745;55.914;37.554;2023-03-25T13:00:25;97536.88;;;13.55;60.82
31088;BME280;17745;55.914;37.554;2023-03-25T13:03:34;97532.94;;;13.62;60.67
31088;BME280;17745;55.914;37.554;2023-03-25T13:06:30;97525.13;;;13.65;60.76
31088;BME280;17745;55.914;37.554;2023-03-25T13:09:15;97543.91;;;13.69;60.43
31088;BME280;17745;55.914;37.554;2023-03-25T13:11:51;97547.50;;;13.64;60.58
31088;BME280;17745;55.914;37.554;2023-03-25T13:14:46;97528.25;;;13.67;60.70
31088;BME280;17745;55.914;37.554;2023-03-25T13:17:44;97544.19;;;14.03;60.15
31088;BME280;17745;55.914;37.554;2023-03-25T13:20:30;97528.31;;;14.24;59.64
31088;BME280;17745;55.914;37.554;2023-03-25T13:23:22;97525.56;;;14.11;59.74
31088;BME280;17745;55.914;37.554;2023-03-25T13:26:06;97529.63;;;14.00;59.80
31088;BME280;17745;55.914;37.554;2023-03-25T13:28:45;97535.91;;;13.86;59.74
31088;BME280;17745;55.914;37.554;2023-03-25T13:31:26;97548.75;;;13.67;60.18
31088;BME280;17745;55.914;37.554;2023-03-25T13:34:07;97552.81;;;13.47;60.44
31088;BME280;17745;55.914;37.554;2023-03-25T13:37:01;97532.44;;;13.33;60.78
31088;BME280;17745;55.914;37.554;2023-03-25T13:42:57;97540.75;;;13.40;60.47
31088;BME280;17745;55.914;37.554;2023-03-25T13:45:49;97536.53;;;13.30;60.54
31088;BME280;17745;55.914;37.554;2023-03-25T13:48:35;97533.41;;;13.28;60.63
31088;BME280;17745;55.914;37.554;2023-03-25T13:51:13;97536.06;;;13.28;60.63
31088;BME280;17745;55.914;37.554;2023-03-25T13:53:51;97560.31;;;13.44;60.45
31088;BME280;17745;55.914;37.554;2023-03-25T14:03:46;97555.13;;;13.39;60.42
31088;BME280;17745;55.914;37.554;2023-03-25T14:10:36;97537.94;;;13.37;60.44
31088;BME280;17745;55.914;37.554;2023-03-25T14:13:21;97554.34;;;13.39;60.25
31088;BME280;17745;55.914;37.554;2023-03-25T14:16:57;97548.72;;;13.40;60.25
31088;BME280;17745;55.914;37.554;2023-03-25T14:19:50;97551.38;;;13.40;60.22
31088;BME280;17745;55.914;37.554;2023-03-25T14:22:43;97543.72;;;13.39;60.29
31088;BME280;17745;55.914;37.554;2023-03-25T14:25:36;97547.16;;;13.30;60.48
31088;BME280;17745;55.914;37.554;2023-03-25T14:28:32;97539.47;;;13.29;60.46
31088;BME280;17745;55.914;37.554;2023-03-25T14:31:32;97552.28;;;13.27;60.50
31088;BME280;17745;55.914;37.554;2023-03-25T14:34:36;97553.41;;;13.35;60.38
31088;BME280;17745;55.914;37.554;2023-03-25T14:37:27;97552.59;;;13.34;60.29
31088;BME280;17745;55.914;37.554;2023-03-25T14:43:19;97558.06;;;13.20;60.54
31088;BME280;17745;55.914;37.554;2023-03-25T14:46:03;97557.44;;;13.23;60.36
31088;BME280;17745;55.914;37.554;2023-03-25T14:48:40;97576.84;;;13.24;60.32
31088;BME280;17745;55.914;37.554;2023-03-25T14:51:47;97563.72;;;13.27;60.25
31088;BME280;17745;55.914;37.554;2023-03-25T14:54:31;97563.25;;;13.34;60.14
31088;BME280;17745;55.914;37.554;2023-03-25T14:57:16;97554.03;;;13.32;60.04
31088;BME280;17745;55.914;37.554;2023-03-25T14:59:54;97559.16;;;13.28;60.04
31088;BME280;17745;55.914;37.554;2023-03-25T15:02:32;97551.19;;;13.19;60.14
31088;BME280;17745;55.914;37.554;2023-03-25T15:05:16;97569.16;;;13.13;60.23
31088;BME280;17745;55.914;37.554;2023-03-25T15:08:08;97555.53;;;13.06;60.41
31088;BME280;17745;55.914;37.554;2023-03-25T15:10:46;97570.84;;;13.00;60.45
31088;BME280;17745;55.914;37.554;2023-03-25T15:13:37;97560.81;;;12.97;60.49
31088;BME280;17745;55.914;37.554;2023-03-25T15:16:34;97581.31;;;12.97;60.53
31088;BME280;17745;55.914;37.554;2023-03-25T15:19:11;97584.25;;;12.95;60.57
31088;BME280;17745;55.914;37.554;2023-03-25T15:22:19;97555.81;;;12.87;60.75
31088;BME280;17745;55.914;37.554;2023-03-25T15:25:40;97564.06;;;12.85;60.81
31088;BME280;17745;55.914;37.554;2023-03-25T15:28:23;97569.53;;;12.80;60.86
31088;BME280;17745;55.914;37.554;2023-03-25T15:31:17;97576.38;;;12.72;60.99
31088;BME280;17745;55.914;37.554;2023-03-25T15:34:01;97577.59;;;12.66;61.13
31088;BME280;17745;55.914;37.554;2023-03-25T15:36:52;97584.78;;;12.66;61.17
31088;BME280;17745;55.914;37.554;2023-03-25T15:39:37;97579.75;;;12.64;61.26
31088;BME280;17745;55.914;37.554;2023-03-25T15:42:41;97595.41;;;12.66;61.13
31088;BME280;17745;55.914;37.554;2023-03-25T15:45:28;97592.25;;;12.64;61.21
31088;BME280;17745;55.914;37.554;2023-03-25T15:48:55;97597.09;;;12.62;61.25
31088;BME280;17745;55.914;37.554;2023-03-25T15:54:52;97608.56;;;12.48;61.43
31088;BME280;17745;55.914;37.554;2023-03-25T15:57:29;97604.00;;;12.40;61.74
31088;BME280;17745;55.914;37.554;2023-03-25T16:00:21;97612.59;;;12.37;61.74
31088;BME280;17745;55.914;37.554;2023-03-25T16:03:21;97599.41;;;12.32;61.97
31088;BME280;17745;55.914;37.554;2023-03-25T16:06:15;97605.22;;;12.34;61.83
31088;BME280;17745;55.914;37.554;2023-03-25T16:09:00;97611.59;;;12.33;61.89
31088;BME280;17745;55.914;37.554;2023-03-25T16:11:51;97597.84;;;12.30;61.93
31088;BME280;17745;55.914;37.554;2023-03-25T16:15:21;97613.63;;;12.27;61.97
31088;BME280;17745;55.914;37.554;2023-03-25T16:18:39;97619.22;;;12.25;62.09